sensor_id;sensor_type;location;lat;lon;timestamp;temperature;humidity
48994;DHT22;34804;49.214;12.276;2023-08-06T00:01:45;15.10;91.50
48994;DHT22;34804;49.214;12.276;2023-08-06T00:04:12;15.10;91.60
48994;DHT22;34804;49.214;12.276;2023-08-06T00:06:39;15.10;91.60
48994;DHT22;34804;49.214;12.276;2023-08-06T00:09:06;15.10;91.40
48994;DHT22;34804;49.214;12.276;2023-08-06T00:11:33;15.10;91.30
48994;DHT22;34804;49.214;12.276;2023-08-06T00:14:00;15.10;91.30
48994;DHT22;34804;49.214;12.276;2023-08-06T00:16:26;15.10;91.30
48994;DHT22;34804;49.214;12.276;2023-08-06T00:18:53;15.10;91.40
48994;DHT22;34804;49.214;12.276;2023-08-06T00:21:20;15.10;91.50
48994;DHT22;34804;49.214;12.276;2023-08-06T00:23:47;15.10;91.60
48994;DHT22;34804;49.214;12.276;2023-08-06T00:26:13;15.10;91.60
48994;DHT22;34804;49.214;12.276;2023-08-06T00:28:40;15.10;91.70
48994;DHT22;34804;49.214;12.276;2023-08-06T00:31:07;15.10;91.80
48994;DHT22;34804;49.214;12.276;2023-08-06T00:33:34;15.10;91.80
48994;DHT22;34804;49.214;12.276;2023-08-06T00:36:01;15.10;91.90
48994;DHT22;34804;49.214;12.276;2023-08-06T00:38:28;15.10;91.90
48994;DHT22;34804;49.214;12.276;2023-08-06T00:40:54;15.10;91.90
48994;DHT22;34804;49.214;12.276;2023-08-06T00:43:21;15.10;92.00
48994;DHT22;34804;49.214;12.276;2023-08-06T00:45:48;15.20;92.10
48994;DHT22;34804;49.214;12.276;2023-08-06T00:48:15;15.20;91.90
48994;DHT22;34804;49.214;12.276;2023-08-06T00:50:43;15.20;91.80
48994;DHT22;34804;49.214;12.276;2023-08-06T00:53:10;15.20;91.80
48994;DHT22;34804;49.214;12.276;2023-08-06T00:55:37;15.20;91.70
48994;DHT22;34804;49.214;12.276;2023-08-06T00:58:04;15.20;91.70
48994;DHT22;34804;49.214;12.276;2023-08-06T01:00:31;15.20;91.60
48994;DHT22;34804;49.214;12.276;2023-08-06T01:02:58;15.20;91.80
48994;DHT22;34804;49.214;12.276;2023-08-06T01:05:26;15.20;91.80
48994;DHT22;34804;49.214;12.276;2023-08-06T01:13:43;15.10;92.10
48994;DHT22;34804;49.214;12.276;2023-08-06T01:16:19;15.10;92.50
48994;DHT22;34804;49.214;12.276;2023-08-06T01:18:47;15.10;92.50
48994;DHT22;34804;49.214;12.276;2023-08-06T01:21:17;15.00;92.80
48994;DHT22;34804;49.214;12.276;2023-08-06T01:23:44;14.90;93.20
48994;DHT22;34804;49.214;12.276;2023-08-06T01:28:56;14.80;93.10
48994;DHT22;34804;49.214;12.276;2023-08-06T01:31:27;14.80;93.60
48994;DHT22;34804;49.214;12.276;2023-08-06T01:33:57;14.80;93.30
48994;DHT22;34804;49.214;12.276;2023-08-06T01:36:25;14.80;93.40
48994;DHT22;34804;49.214;12.276;2023-08-06T01:38:53;14.80;93.80
48994;DHT22;34804;49.214;12.276;2023-08-06T01:41:20;14.80;93.70
48994;DHT22;34804;49.214;12.276;2023-08-06T01:43:47;14.80;93.90
48994;DHT22;34804;49.214;12.276;2023-08-06T01:46:13;14.70;93.70
48994;DHT22;34804;49.214;12.276;2023-08-06T01:48:40;14.60;94.00
48994;DHT22;34804;49.214;12.276;2023-08-06T01:51:07;14.70;94.00
48994;DHT22;34804;49.214;12.276;2023-08-06T01:53:34;14.70;93.70
48994;DHT22;34804;49.214;12.276;2023-08-06T01:56:01;14.60;94.00
48994;DHT22;34804;49.214;12.276;2023-08-06T01:58:28;14.50;93.80
48994;DHT22;34804;49.214;12.276;2023-08-06T02:00:55;14.50;93.60
48994;DHT22;34804;49.214;12.276;2023-08-06T02:03:21;14.50;93.70
48994;DHT22;34804;49.214;12.276;2023-08-06T02:05:48;14.50;93.70
48994;DHT22;34804;49.214;12.276;2023-08-06T02:08:15;14.50;93.60
48994;DHT22;34804;49.214;12.276;2023-08-06T02:10:42;14.50;93.80
48994;DHT22;34804;49.214;12.276;2023-08-06T02:13:09;14.40;94.00
48994;DHT22;34804;49.214;12.276;2023-08-06T02:15:36;14.40;93.90
48994;DHT22;34804;49.214;12.276;2023-08-06T02:18:08;14.40;93.80
48994;DHT22;34804;49.214;12.276;2023-08-06T02:20:34;14.40;93.90
48994;DHT22;34804;49.214;12.276;2023-08-06T02:23:01;14.40;94.10
48994;DHT22;34804;49.214;12.276;2023-08-06T02:25:28;14.40;93.80
48994;DHT22;34804;49.214;12.276;2023-08-06T02:27:55;14.40;93.70
48994;DHT22;34804;49.214;12.276;2023-08-06T02:30:22;14.40;93.70
48994;DHT22;34804;49.214;12.276;2023-08-06T02:32:49;14.40;93.40
48994;DHT22;34804;49.214;12.276;2023-08-06T02:35:16;14.40;93.50
48994;DHT22;34804;49.214;12.276;2023-08-06T02:37:43;14.30;93.50
48994;DHT22;34804;49.214;12.276;2023-08-06T02:40:10;14.40;94.00
48994;DHT22;34804;49.214;12.276;2023-08-06T02:42:37;14.40;93.80
48994;DHT22;34804;49.214;12.276;2023-08-06T02:45:04;14.40;93.80
48994;DHT22;34804;49.214;12.276;2023-08-06T02:47:31;14.30;93.50
48994;DHT22;34804;49.214;12.276;2023-08-06T02:49:58;14.30;93.50
48994;DHT22;34804;49.214;12.276;2023-08-06T02:52:25;14.30;93.60
48994;DHT22;34804;49.214;12.276;2023-08-06T02:54:52;14.30;93.80
48994;DHT22;34804;49.214;12.276;2023-08-06T02:57:44;14.30;93.90
48994;DHT22;34804;49.214;12.276;2023-08-06T03:00:10;14.30;93.90
48994;DHT22;34804;49.214;12.276;2023-08-06T03:02:38;14.30;94.00
48994;DHT22;34804;49.214;12.276;2023-08-06T03:05:05;14.40;94.10
48994;DHT22;34804;49.214;12.276;2023-08-06T03:07:32;14.30;94.00
48994;DHT22;34804;49.214;12.276;2023-08-06T03:10:00;14.30;94.00
48994;DHT22;34804;49.214;12.276;2023-08-06T03:12:29;14.30;93.90
48994;DHT22;34804;49.214;12.276;2023-08-06T03:14:55;14.20;93.90
48994;DHT22;34804;49.214;12.276;2023-08-06T03:17:22;14.30;94.10
48994;DHT22;34804;49.214;12.276;2023-08-06T03:19:49;14.20;94.00
48994;DHT22;34804;49.214;12.276;2023-08-06T03:22:16;14.20;94.20
48994;DHT22;34804;49.214;12.276;2023-08-06T03:24:43;14.20;94.20
48994;DHT22;34804;49.214;12.276;2023-08-06T03:27:09;14.20;94.10
48994;DHT22;34804;49.214;12.276;2023-08-06T03:29:36;14.20;94.30
48994;DHT22;34804;49.214;12.276;2023-08-06T03:32:03;14.30;94.50
48994;DHT22;34804;49.214;12.276;2023-08-06T03:34:30;14.30;94.70
48994;DHT22;34804;49.214;12.276;2023-08-06T03:36:57;14.30;94.30
48994;DHT22;34804;49.214;12.276;2023-08-06T03:39:24;14.20;94.00
48994;DHT22;34804;49.214;12.276;2023-08-06T03:41:50;14.20;93.90
48994;DHT22;34804;49.214;12.276;2023-08-06T03:44:18;14.10;93.80
48994;DHT22;34804;49.214;12.276;2023-08-06T03:46:44;14.20;94.00
48994;DHT22;34804;49.214;12.276;2023-08-06T03:49:11;14.10;93.90
48994;DHT22;34804;49.214;12.276;2023-08-06T03:51:38;14.10;93.90
48994;DHT22;34804;49.214;12.276;2023-08-06T03:54:05;14.10;94.00
48994;DHT22;34804;49.214;12.276;2023-08-06T03:56:32;14.00;94.10
48994;DHT22;34804;49.214;12.276;2023-08-06T03:58:58;14.00;94.30
48994;DHT22;34804;49.214;12.276;2023-08-06T04:01:25;14.00;94.30
48994;DHT22;34804;49.214;12.276;2023-08-06T04:03:52;14.00;94.40
48994;DHT22;34804;49.214;12.276;2023-08-06T04:06:19;14.00;94.40
48994;DHT22;34804;49.214;12.276;2023-08-06T04:08:46;14.00;94.30
48994;DHT22;34804;49.214;12.276;2023-08-06T04:11:12;14.10;94.50
48994;DHT22;34804;49.214;12.276;2023-08-06T04:13:43;14.10;94.50
48994;DHT22;34804;49.214;12.276;2023-08-06T04:16:10;14.10;94.30
48994;DHT22;34804;49.214;12.276;2023-08-06T04:18:37;14.20;94.50
48994;DHT22;34804;49.214;12.276;2023-08-06T04:21:04;14.20;94.40
48994;DHT22;34804;49.214;12.276;2023-08-06T04:23:31;14.10;94.10
48994;DHT22;34804;49.214;12.276;2023-08-06T04:25:58;14.10;94.40
48994;DHT22;34804;49.214;12.276;2023-08-06T04:28:25;14.20;94.40
48994;DHT22;34804;49.214;12.276;2023-08-06T04:30:51;14.20;94.40
48994;DHT22;34804;49.214;12.276;2023-08-06T04:33:20;14.20;94.30
48994;DHT22;34804;49.214;12.276;2023-08-06T04:35:47;14.20;93.90
48994;DHT22;34804;49.214;12.276;2023-08-06T04:38:14;14.20;93.80
48994;DHT22;34804;49.214;12.276;2023-08-06T04:40:41;14.20;93.80
48994;DHT22;34804;49.214;12.276;2023-08-06T04:43:07;14.20;93.70
48994;DHT22;34804;49.214;12.276;2023-08-06T04:45:34;14.20;93.60
48994;DHT22;34804;49.214;12.276;2023-08-06T04:48:01;14.30;93.60
48994;DHT22;34804;49.214;12.276;2023-08-06T04:50:28;14.30;93.50
48994;DHT22;34804;49.214;12.276;2023-08-06T04:52:54;14.40;93.30
48994;DHT22;34804;49.214;12.276;2023-08-06T04:55:22;14.30;93.00
48994;DHT22;34804;49.214;12.276;2023-08-06T04:57:48;14.30;93.00
48994;DHT22;34804;49.214;12.276;2023-08-06T05:00:15;14.30;93.00
48994;DHT22;34804;49.214;12.276;2023-08-06T05:02:42;14.30;92.80
48994;DHT22;34804;49.214;12.276;2023-08-06T05:05:09;14.40;93.00
48994;DHT22;34804;49.214;12.276;2023-08-06T05:07:36;14.40;93.00
48994;DHT22;34804;49.214;12.276;2023-08-06T05:10:03;14.40;93.30
48994;DHT22;34804;49.214;12.276;2023-08-06T05:12:31;14.50;93.40
48994;DHT22;34804;49.214;12.276;2023-08-06T05:14:58;14.50;92.90
48994;DHT22;34804;49.214;12.276;2023-08-06T05:17:24;14.50;92.70
48994;DHT22;34804;49.214;12.276;2023-08-06T05:19:51;14.60;92.20
48994;DHT22;34804;49.214;12.276;2023-08-06T05:22:18;14.70;92.20
48994;DHT22;34804;49.214;12.276;2023-08-06T05:24:45;14.80;92.50
48994;DHT22;34804;49.214;12.276;2023-08-06T05:27:12;14.90;92.10
48994;DHT22;34804;49.214;12.276;2023-08-06T05:29:39;14.90;91.60
48994;DHT22;34804;49.214;12.276;2023-08-06T05:32:06;14.90;90.90
48994;DHT22;34804;49.214;12.276;2023-08-06T05:34:33;14.90;91.00
48994;DHT22;34804;49.214;12.276;2023-08-06T05:36:59;14.80;90.90
48994;DHT22;34804;49.214;12.276;2023-08-06T05:39:26;14.80;91.20
48994;DHT22;34804;49.214;12.276;2023-08-06T05:41:53;14.80;91.60
48994;DHT22;34804;49.214;12.276;2023-08-06T05:44:21;14.90;91.70
48994;DHT22;34804;49.214;12.276;2023-08-06T05:46:49;14.90;91.50
48994;DHT22;34804;49.214;12.276;2023-08-06T05:49:16;14.90;91.50
48994;DHT22;34804;49.214;12.276;2023-08-06T05:51:42;14.90;91.60
48994;DHT22;34804;49.214;12.276;2023-08-06T05:54:09;14.80;91.20
48994;DHT22;34804;49.214;12.276;2023-08-06T05:56:36;14.80;91.10
48994;DHT22;34804;49.214;12.276;2023-08-06T05:59:03;14.80;91.30
48994;DHT22;34804;49.214;12.276;2023-08-06T06:01:29;14.80;92.00
48994;DHT22;34804;49.214;12.276;2023-08-06T06:03:56;14.80;91.90
48994;DHT22;34804;49.214;12.276;2023-08-06T06:06:23;14.80;91.60
48994;DHT22;34804;49.214;12.276;2023-08-06T06:08:50;14.80;92.00
48994;DHT22;34804;49.214;12.276;2023-08-06T06:11:17;14.80;92.00
48994;DHT22;34804;49.214;12.276;2023-08-06T06:13:46;14.80;91.60
48994;DHT22;34804;49.214;12.276;2023-08-06T06:16:12;14.80;90.70
48994;DHT22;34804;49.214;12.276;2023-08-06T06:18:39;14.90;91.70
48994;DHT22;34804;49.214;12.276;2023-08-06T06:21:06;15.00;92.10
48994;DHT22;34804;49.214;12.276;2023-08-06T06:23:33;14.90;91.20
48994;DHT22;34804;49.214;12.276;2023-08-06T06:26:00;15.00;91.40
48994;DHT22;34804;49.214;12.276;2023-08-06T06:28:26;15.00;91.10
48994;DHT22;34804;49.214;12.276;2023-08-06T06:30:53;15.00;90.70
48994;DHT22;34804;49.214;12.276;2023-08-06T06:33:20;14.90;90.70
48994;DHT22;34804;49.214;12.276;2023-08-06T06:35:47;15.00;91.40
48994;DHT22;34804;49.214;12.276;2023-08-06T06:38:13;15.00;90.60
48994;DHT22;34804;49.214;12.276;2023-08-06T06:40:40;15.00;90.30
48994;DHT22;34804;49.214;12.276;2023-08-06T06:43:07;14.90;90.80
48994;DHT22;34804;49.214;12.276;2023-08-06T06:45:34;15.00;90.70
48994;DHT22;34804;49.214;12.276;2023-08-06T06:48:01;15.00;90.20
48994;DHT22;34804;49.214;12.276;2023-08-06T06:50:27;15.00;90.10
48994;DHT22;34804;49.214;12.276;2023-08-06T06:52:54;15.10;91.80
48994;DHT22;34804;49.214;12.276;2023-08-06T06:55:21;15.10;89.90
48994;DHT22;34804;49.214;12.276;2023-08-06T06:57:48;15.20;90.50
48994;DHT22;34804;49.214;12.276;2023-08-06T07:00:15;15.20;90.70
48994;DHT22;34804;49.214;12.276;2023-08-06T07:02:42;15.40;90.10
48994;DHT22;34804;49.214;12.276;2023-08-06T07:05:09;15.40;90.20
48994;DHT22;34804;49.214;12.276;2023-08-06T07:07:36;15.40;88.70
48994;DHT22;34804;49.214;12.276;2023-08-06T07:10:04;15.50;88.90
48994;DHT22;34804;49.214;12.276;2023-08-06T07:12:32;15.60;89.20
48994;DHT22;34804;49.214;12.276;2023-08-06T07:14:59;15.90;89.40
48994;DHT22;34804;49.214;12.276;2023-08-06T07:17:25;16.00;89.30
48994;DHT22;34804;49.214;12.276;2023-08-06T07:19:52;16.20;88.00
48994;DHT22;34804;49.214;12.276;2023-08-06T07:22:19;16.30;88.10
48994;DHT22;34804;49.214;12.276;2023-08-06T07:24:46;16.40;87.00
48994;DHT22;34804;49.214;12.276;2023-08-06T07:27:13;16.50;86.60
48994;DHT22;34804;49.214;12.276;2023-08-06T07:29:40;16.50;85.90
48994;DHT22;34804;49.214;12.276;2023-08-06T07:32:07;16.90;89.00
48994;DHT22;34804;49.214;12.276;2023-08-06T07:34:34;17.00;87.50
48994;DHT22;34804;49.214;12.276;2023-08-06T07:37:01;17.30;85.00
48994;DHT22;34804;49.214;12.276;2023-08-06T07:39:27;17.30;85.90
48994;DHT22;34804;49.214;12.276;2023-08-06T07:41:55;17.40;84.40
48994;DHT22;34804;49.214;12.276;2023-08-06T07:44:22;17.40;82.70
48994;DHT22;34804;49.214;12.276;2023-08-06T07:46:49;17.70;84.10
48994;DHT22;34804;49.214;12.276;2023-08-06T07:49:16;17.80;81.30
48994;DHT22;34804;49.214;12.276;2023-08-06T07:51:42;17.80;80.70
48994;DHT22;34804;49.214;12.276;2023-08-06T07:54:09;17.90;80.60
48994;DHT22;34804;49.214;12.276;2023-08-06T07:56:36;18.00;80.60
48994;DHT22;34804;49.214;12.276;2023-08-06T07:59:03;17.90;81.90
48994;DHT22;34804;49.214;12.276;2023-08-06T08:01:30;17.80;79.80
48994;DHT22;34804;49.214;12.276;2023-08-06T08:03:57;17.50;80.40
48994;DHT22;34804;49.214;12.276;2023-08-06T08:06:24;17.30;81.80
48994;DHT22;34804;49.214;12.276;2023-08-06T08:08:50;17.20;82.00
48994;DHT22;34804;49.214;12.276;2023-08-06T08:11:20;17.10;82.30
48994;DHT22;34804;49.214;12.276;2023-08-06T08:13:47;17.10;82.40
48994;DHT22;34804;49.214;12.276;2023-08-06T08:16:14;17.10;83.30
48994;DHT22;34804;49.214;12.276;2023-08-06T08:18:41;17.60;84.30
48994;DHT22;34804;49.214;12.276;2023-08-06T08:21:09;18.00;82.70
48994;DHT22;34804;49.214;12.276;2023-08-06T08:23:36;18.30;80.50
48994;DHT22;34804;49.214;12.276;2023-08-06T08:26:02;18.50;78.60
48994;DHT22;34804;49.214;12.276;2023-08-06T08:28:30;18.30;79.20
48994;DHT22;34804;49.214;12.276;2023-08-06T08:30:57;18.40;78.80
48994;DHT22;34804;49.214;12.276;2023-08-06T08:33:24;18.30;79.10
48994;DHT22;34804;49.214;12.276;2023-08-06T08:35:51;17.90;79.60
48994;DHT22;34804;49.214;12.276;2023-08-06T08:38:17;17.80;81.10
48994;DHT22;34804;49.214;12.276;2023-08-06T08:40:51;17.80;83.20
48994;DHT22;34804;49.214;12.276;2023-08-06T08:43:21;18.20;79.70
48994;DHT22;34804;49.214;12.276;2023-08-06T08:45:53;18.10;81.40
48994;DHT22;34804;49.214;12.276;2023-08-06T08:48:22;17.90;78.10
48994;DHT22;34804;49.214;12.276;2023-08-06T08:50:49;18.10;82.40
48994;DHT22;34804;49.214;12.276;2023-08-06T08:53:17;18.50;78.60
48994;DHT22;34804;49.214;12.276;2023-08-06T08:55:48;18.80;79.90
48994;DHT22;34804;49.214;12.276;2023-08-06T08:58:15;18.80;77.80
48994;DHT22;34804;49.214;12.276;2023-08-06T09:00:43;18.80;78.90
48994;DHT22;34804;49.214;12.276;2023-08-06T09:03:12;18.60;77.20
48994;DHT22;34804;49.214;12.276;2023-08-06T09:05:42;18.60;79.00
48994;DHT22;34804;49.214;12.276;2023-08-06T09:08:12;18.60;78.80
48994;DHT22;34804;49.214;12.276;2023-08-06T09:10:43;18.70;78.70
48994;DHT22;34804;49.214;12.276;2023-08-06T09:13:10;18.70;78.10
48994;DHT22;34804;49.214;12.276;2023-08-06T09:15:38;19.00;78.80
48994;DHT22;34804;49.214;12.276;2023-08-06T09:18:12;19.50;78.10
48994;DHT22;34804;49.214;12.276;2023-08-06T09:20:39;19.60;75.80
48994;DHT22;34804;49.214;12.276;2023-08-06T09:23:10;19.50;71.90
48994;DHT22;34804;49.214;12.276;2023-08-06T09:25:38;19.30;74.00
48994;DHT22;34804;49.214;12.276;2023-08-06T09:28:07;19.30;76.40
48994;DHT22;34804;49.214;12.276;2023-08-06T09:30:36;19.70;74.60
48994;DHT22;34804;49.214;12.276;2023-08-06T09:33:07;19.90;71.90
48994;DHT22;34804;49.214;12.276;2023-08-06T09:35:36;19.60;73.80
48994;DHT22;34804;49.214;12.276;2023-08-06T09:38:10;19.60;71.10
48994;DHT22;34804;49.214;12.276;2023-08-06T09:40:38;19.70;69.60
48994;DHT22;34804;49.214;12.276;2023-08-06T09:43:05;19.80;70.30
48994;DHT22;34804;49.214;12.276;2023-08-06T09:45:36;19.40;69.80
48994;DHT22;34804;49.214;12.276;2023-08-06T09:48:07;18.90;72.80
48994;DHT22;34804;49.214;12.276;2023-08-06T09:50:38;18.70;71.10
48994;DHT22;34804;49.214;12.276;2023-08-06T09:53:07;17.90;77.10
48994;DHT22;34804;49.214;12.276;2023-08-06T09:55:35;17.30;81.10
48994;DHT22;34804;49.214;12.276;2023-08-06T09:58:04;16.80;83.20
48994;DHT22;34804;49.214;12.276;2023-08-06T10:00:33;16.80;86.60
48994;DHT22;34804;49.214;12.276;2023-08-06T10:03:06;17.00;86.90
48994;DHT22;34804;49.214;12.276;2023-08-06T10:05:34;17.10;86.70
48994;DHT22;34804;49.214;12.276;2023-08-06T10:08:03;17.60;90.60
48994;DHT22;34804;49.214;12.276;2023-08-06T10:10:32;17.30;82.30
48994;DHT22;34804;49.214;12.276;2023-08-06T10:12:59;16.80;82.40
48994;DHT22;34804;49.214;12.276;2023-08-06T10:15:29;16.60;84.50
48994;DHT22;34804;49.214;12.276;2023-08-06T10:17:59;16.30;85.90
48994;DHT22;34804;49.214;12.276;2023-08-06T10:20:33;16.30;87.40
48994;DHT22;34804;49.214;12.276;2023-08-06T10:23:04;16.40;88.10
48994;DHT22;34804;49.214;12.276;2023-08-06T10:25:33;16.50;86.60
48994;DHT22;34804;49.214;12.276;2023-08-06T10:28:10;16.70;87.70
48994;DHT22;34804;49.214;12.276;2023-08-06T10:30:47;17.10;89.00
48994;DHT22;34804;49.214;12.276;2023-08-06T10:33:14;17.50;89.00
48994;DHT22;34804;49.214;12.276;2023-08-06T10:35:48;17.70;84.70
48994;DHT22;34804;49.214;12.276;2023-08-06T10:38:24;17.70;82.20
48994;DHT22;34804;49.214;12.276;2023-08-06T10:43:33;17.80;84.90
48994;DHT22;34804;49.214;12.276;2023-08-06T10:46:02;18.20;84.40
48994;DHT22;34804;49.214;12.276;2023-08-06T10:48:41;18.30;82.30
48994;DHT22;34804;49.214;12.276;2023-08-06T10:51:13;18.10;80.80
48994;DHT22;34804;49.214;12.276;2023-08-06T10:53:46;17.70;82.10
48994;DHT22;34804;49.214;12.276;2023-08-06T10:56:22;17.50;82.50
48994;DHT22;34804;49.214;12.276;2023-08-06T10:58:53;17.40;83.90
48994;DHT22;34804;49.214;12.276;2023-08-06T11:01:22;17.70;85.80
48994;DHT22;34804;49.214;12.276;2023-08-06T11:03:50;17.70;84.30
48994;DHT22;34804;49.214;12.276;2023-08-06T11:06:19;17.80;85.00
48994;DHT22;34804;49.214;12.276;2023-08-06T11:08:51;17.60;81.80
48994;DHT22;34804;49.214;12.276;2023-08-06T11:11:18;17.50;83.60
48994;DHT22;34804;49.214;12.276;2023-08-06T11:13:48;17.50;81.70
48994;DHT22;34804;49.214;12.276;2023-08-06T11:16:17;17.50;83.00
48994;DHT22;34804;49.214;12.276;2023-08-06T11:18:46;16.90;83.10
48994;DHT22;34804;49.214;12.276;2023-08-06T11:21:14;16.90;84.90
48994;DHT22;34804;49.214;12.276;2023-08-06T11:23:41;16.80;83.10
48994;DHT22;34804;49.214;12.276;2023-08-06T11:26:08;16.90;83.90
48994;DHT22;34804;49.214;12.276;2023-08-06T11:28:35;17.00;82.60
48994;DHT22;34804;49.214;12.276;2023-08-06T11:31:02;17.10;83.50
48994;DHT22;34804;49.214;12.276;2023-08-06T11:33:30;17.30;83.80
48994;DHT22;34804;49.214;12.276;2023-08-06T11:35:59;17.80;84.10
48994;DHT22;34804;49.214;12.276;2023-08-06T11:38:30;18.30;81.00
48994;DHT22;34804;49.214;12.276;2023-08-06T11:40:58;18.40;78.30
48994;DHT22;34804;49.214;12.276;2023-08-06T11:43:24;18.60;77.70
48994;DHT22;34804;49.214;12.276;2023-08-06T11:45:51;18.80;77.80
48994;DHT22;34804;49.214;12.276;2023-08-06T11:48:21;19.60;79.40
48994;DHT22;34804;49.214;12.276;2023-08-06T11:50:48;19.80;75.10
48994;DHT22;34804;49.214;12.276;2023-08-06T11:53:15;19.90;76.10
48994;DHT22;34804;49.214;12.276;2023-08-06T11:55:43;19.80;75.80
48994;DHT22;34804;49.214;12.276;2023-08-06T11:58:11;20.00;72.00
48994;DHT22;34804;49.214;12.276;2023-08-06T12:00:39;20.30;70.40
48994;DHT22;34804;49.214;12.276;2023-08-06T12:03:06;20.70;68.60
48994;DHT22;34804;49.214;12.276;2023-08-06T12:05:33;21.30;70.20
48994;DHT22;34804;49.214;12.276;2023-08-06T12:08:02;21.30;67.70
48994;DHT22;34804;49.214;12.276;2023-08-06T12:10:30;20.90;67.80
48994;DHT22;34804;49.214;12.276;2023-08-06T12:12:57;20.60;68.70
48994;DHT22;34804;49.214;12.276;2023-08-06T12:15:24;20.40;70.80
48994;DHT22;34804;49.214;12.276;2023-08-06T12:17:52;20.20;69.30
48994;DHT22;34804;49.214;12.276;2023-08-06T12:20:19;20.50;69.80
48994;DHT22;34804;49.214;12.276;2023-08-06T12:22:46;21.30;70.10
48994;DHT22;34804;49.214;12.276;2023-08-06T12:25:13;21.60;63.40
48994;DHT22;34804;49.214;12.276;2023-08-06T12:27:42;21.50;63.30
48994;DHT22;34804;49.214;12.276;2023-08-06T12:30:10;21.80;65.30
48994;DHT22;34804;49.214;12.276;2023-08-06T12:32:38;21.40;61.60
48994;DHT22;34804;49.214;12.276;2023-08-06T12:35:05;20.90;64.90
48994;DHT22;34804;49.214;12.276;2023-08-06T12:37:34;21.10;63.30
48994;DHT22;34804;49.214;12.276;2023-08-06T12:40:02;21.50;65.70
48994;DHT22;34804;49.214;12.276;2023-08-06T12:42:50;22.20;62.20
48994;DHT22;34804;49.214;12.276;2023-08-06T12:45:21;22.50;60.90
48994;DHT22;34804;49.214;12.276;2023-08-06T12:47:48;22.70;61.60
48994;DHT22;34804;49.214;12.276;2023-08-06T12:50:16;22.40;60.70
48994;DHT22;34804;49.214;12.276;2023-08-06T12:52:44;22.10;61.50
48994;DHT22;34804;49.214;12.276;2023-08-06T12:55:11;22.30;60.80
48994;DHT22;34804;49.214;12.276;2023-08-06T12:57:38;22.30;61.30
48994;DHT22;34804;49.214;12.276;2023-08-06T13:00:22;22.80;58.00
48994;DHT22;34804;49.214;12.276;2023-08-06T13:02:49;24.30;55.20
48994;DHT22;34804;49.214;12.276;2023-08-06T13:05:16;23.90;55.40
48994;DHT22;34804;49.214;12.276;2023-08-06T13:07:43;21.80;58.50
48994;DHT22;34804;49.214;12.276;2023-08-06T13:10:10;20.30;63.80
48994;DHT22;34804;49.214;12.276;2023-08-06T13:12:37;18.50;69.80
48994;DHT22;34804;49.214;12.276;2023-08-06T13:15:04;18.50;73.70
48994;DHT22;34804;49.214;12.276;2023-08-06T13:17:31;19.10;70.10
48994;DHT22;34804;49.214;12.276;2023-08-06T13:19:58;19.30;70.30
48994;DHT22;34804;49.214;12.276;2023-08-06T13:22:25;20.70;66.70
48994;DHT22;34804;49.214;12.276;2023-08-06T13:24:52;20.10;66.70
48994;DHT22;34804;49.214;12.276;2023-08-06T13:27:19;20.20;69.50
48994;DHT22;34804;49.214;12.276;2023-08-06T13:29:46;19.80;68.30
48994;DHT22;34804;49.214;12.276;2023-08-06T13:32:13;19.70;70.20
48994;DHT22;34804;49.214;12.276;2023-08-06T13:34:42;19.60;70.80
48994;DHT22;34804;49.214;12.276;2023-08-06T13:37:09;19.50;70.70
48994;DHT22;34804;49.214;12.276;2023-08-06T13:39:37;19.60;68.10
48994;DHT22;34804;49.214;12.276;2023-08-06T13:42:04;19.30;68.00
48994;DHT22;34804;49.214;12.276;2023-08-06T13:44:31;19.10;69.60
48994;DHT22;34804;49.214;12.276;2023-08-06T13:47:02;19.50;69.60
48994;DHT22;34804;49.214;12.276;2023-08-06T13:49:29;20.00;68.80
48994;DHT22;34804;49.214;12.276;2023-08-06T13:51:55;20.30;66.10
48994;DHT22;34804;49.214;12.276;2023-08-06T13:54:41;20.00;65.90
48994;DHT22;34804;49.214;12.276;2023-08-06T13:57:08;19.20;68.70
48994;DHT22;34804;49.214;12.276;2023-08-06T13:59:35;18.80;69.10
48994;DHT22;34804;49.214;12.276;2023-08-06T14:02:02;17.70;76.90
48994;DHT22;34804;49.214;12.276;2023-08-06T14:04:30;16.70;82.80
48994;DHT22;34804;49.214;12.276;2023-08-06T14:06:57;16.90;85.70
48994;DHT22;34804;49.214;12.276;2023-08-06T14:09:24;17.80;84.40
48994;DHT22;34804;49.214;12.276;2023-08-06T14:11:52;17.60;82.00
48994;DHT22;34804;49.214;12.276;2023-08-06T14:14:22;17.30;80.90
48994;DHT22;34804;49.214;12.276;2023-08-06T14:16:54;17.10;80.80
48994;DHT22;34804;49.214;12.276;2023-08-06T14:19:23;17.40;79.80
48994;DHT22;34804;49.214;12.276;2023-08-06T14:21:50;17.90;79.20
48994;DHT22;34804;49.214;12.276;2023-08-06T14:24:18;18.30;79.30
48994;DHT22;34804;49.214;12.276;2023-08-06T14:26:45;18.30;77.70
48994;DHT22;34804;49.214;12.276;2023-08-06T14:29:12;18.80;80.80
48994;DHT22;34804;49.214;12.276;2023-08-06T14:31:41;19.50;80.50
48994;DHT22;34804;49.214;12.276;2023-08-06T14:34:07;20.60;70.80
48994;DHT22;34804;49.214;12.276;2023-08-06T14:36:34;20.80;72.20
48994;DHT22;34804;49.214;12.276;2023-08-06T14:39:01;21.00;67.30
48994;DHT22;34804;49.214;12.276;2023-08-06T14:41:28;20.00;69.50
48994;DHT22;34804;49.214;12.276;2023-08-06T14:43:55;18.90;71.10
48994;DHT22;34804;49.214;12.276;2023-08-06T14:46:22;18.90;73.30
48994;DHT22;34804;49.214;12.276;2023-08-06T14:48:49;18.70;72.60
48994;DHT22;34804;49.214;12.276;2023-08-06T14:51:15;18.50;72.10
48994;DHT22;34804;49.214;12.276;2023-08-06T14:53:45;18.30;74.40
48994;DHT22;34804;49.214;12.276;2023-08-06T14:56:12;18.50;72.50
48994;DHT22;34804;49.214;12.276;2023-08-06T14:58:39;19.20;71.20
48994;DHT22;34804;49.214;12.276;2023-08-06T15:01:06;20.20;69.50
48994;DHT22;34804;49.214;12.276;2023-08-06T15:03:33;20.30;67.30
48994;DHT22;34804;49.214;12.276;2023-08-06T15:06:00;19.90;67.00
48994;DHT22;34804;49.214;12.276;2023-08-06T15:08:27;19.60;67.70
48994;DHT22;34804;49.214;12.276;2023-08-06T15:10:54;19.10;69.70
48994;DHT22;34804;49.214;12.276;2023-08-06T15:13:21;18.50;70.80
48994;DHT22;34804;49.214;12.276;2023-08-06T15:15:51;18.10;71.40
48994;DHT22;34804;49.214;12.276;2023-08-06T15:18:18;18.20;71.50
48994;DHT22;34804;49.214;12.276;2023-08-06T15:20:46;17.80;73.70
48994;DHT22;34804;49.214;12.276;2023-08-06T15:23:13;17.70;74.00
48994;DHT22;34804;49.214;12.276;2023-08-06T15:25:40;17.40;75.50
48994;DHT22;34804;49.214;12.276;2023-08-06T15:28:07;17.10;77.10
48994;DHT22;34804;49.214;12.276;2023-08-06T15:30:33;16.70;79.00